createdAt,value
2017-12-30T00:01:36.909Z,88.95
2017-12-30T00:04:02.692Z,88.95
2017-12-30T00:06:28.462Z,88.84
2017-12-30T00:08:54.606Z,89.20
2017-12-30T00:11:20.400Z,88.45
2017-12-30T00:13:46.202Z,88.41
2017-12-30T00:16:12.369Z,88.72
2017-12-30T00:18:38.154Z,88.66
2017-12-30T00:21:03.942Z,88.59
2017-12-30T00:23:29.767Z,88.76
2017-12-30T00:25:55.564Z,88.26
2017-12-30T00:28:21.363Z,87.61
2017-12-30T00:30:47.183Z,88.22
2017-12-30T00:33:12.969Z,87.85
2017-12-30T00:35:38.753Z,88.10
2017-12-30T00:38:04.966Z,87.92
2017-12-30T00:40:30.745Z,88.09
2017-12-30T00:42:56.526Z,86.42
2017-12-30T00:45:22.326Z,86.90
2017-12-30T00:47:48.127Z,86.01
2017-12-30T00:50:13.919Z,86.38
2017-12-30T00:52:39.727Z,87.12
2017-12-30T00:55:05.505Z,86.72
2017-12-30T00:57:31.285Z,87.01
2017-12-30T00:59:57.070Z,87.10
2017-12-30T01:02:22.879Z,87.38
2017-12-30T01:04:48.700Z,86.85
2017-12-30T01:07:14.496Z,86.59
2017-12-30T01:09:40.279Z,86.63
2017-12-30T01:12:06.089Z,86.69
2017-12-30T01:14:31.878Z,87.26
2017-12-30T01:16:57.663Z,87.35
2017-12-30T01:19:23.479Z,86.55
2017-12-30T01:21:49.289Z,86.65
2017-12-30T01:24:15.076Z,87.54
2017-12-30T01:26:40.904Z,87.48
2017-12-30T01:29:06.699Z,88.54
2017-12-30T01:31:32.490Z,86.92
2017-12-30T01:33:58.317Z,86.66
2017-12-30T01:36:24.106Z,87.60
2017-12-30T01:38:49.899Z,86.65
2017-12-30T01:41:15.706Z,86.32
2017-12-30T01:43:41.489Z,86.79
2017-12-30T01:46:07.278Z,86.90
2017-12-30T01:48:33.128Z,87.22
2017-12-30T01:50:59.808Z,87.11
2017-12-30T01:53:25.594Z,87.32
2017-12-30T01:55:51.391Z,86.92
2017-12-30T01:58:17.179Z,87.26
2017-12-30T02:00:42.985Z,87.38
2017-12-30T02:03:08.767Z,87.82
2017-12-30T02:05:34.567Z,87.55
2017-12-30T02:08:03.563Z,88.24
2017-12-30T02:10:29.347Z,88.59
2017-12-30T02:12:55.133Z,89.08
2017-12-30T02:15:20.932Z,89.69
2017-12-30T02:17:46.701Z,90.58
2017-12-30T02:20:12.506Z,90.94
2017-12-30T02:22:38.303Z,90.94
2017-12-30T02:25:04.090Z,91.26
2017-12-30T02:27:29.874Z,91.47
2017-12-30T02:29:55.658Z,91.53
2017-12-30T02:32:21.446Z,91.64
2017-12-30T02:34:47.242Z,91.64
2017-12-30T02:37:13.030Z,91.62
2017-12-30T02:39:38.837Z,91.72
2017-12-30T02:42:04.655Z,91.58
2017-12-30T02:44:30.442Z,91.63
2017-12-30T02:46:56.284Z,91.87
2017-12-30T02:49:22.058Z,91.85
2017-12-30T02:51:47.909Z,92.07
2017-12-30T02:54:13.686Z,92.42
2017-12-30T02:56:39.468Z,92.47
2017-12-30T02:59:05.278Z,91.63
2017-12-30T03:01:31.047Z,91.86
2017-12-30T03:03:56.843Z,89.76
2017-12-30T03:06:22.679Z,90.96
2017-12-30T03:08:48.470Z,91.41
2017-12-30T03:11:14.242Z,90.49
2017-12-30T03:13:40.278Z,89.98
2017-12-30T03:16:06.066Z,90.24
2017-12-30T03:18:31.900Z,90.49
2017-12-30T03:20:57.718Z,91.21
2017-12-30T03:23:23.552Z,90.97
2017-12-30T03:25:49.394Z,91.08
2017-12-30T03:28:15.589Z,90.77
2017-12-30T03:30:41.375Z,90.81
2017-12-30T03:33:07.158Z,91.10
2017-12-30T03:35:33.268Z,90.95
2017-12-30T03:37:59.059Z,91.04
2017-12-30T03:40:24.862Z,90.72
2017-12-30T03:42:50.674Z,90.51
2017-12-30T03:45:16.454Z,90.71
2017-12-30T03:47:42.230Z,90.17
2017-12-30T03:50:08.884Z,90.14
2017-12-30T03:52:34.666Z,90.26
2017-12-30T03:55:00.519Z,90.25
2017-12-30T03:57:26.354Z,90.36
2017-12-30T03:59:52.138Z,89.94
2017-12-30T04:02:17.909Z,89.81
2017-12-30T04:04:43.702Z,89.43
2017-12-30T04:07:09.479Z,89.47
2017-12-30T04:09:35.297Z,89.30
2017-12-30T04:12:01.080Z,88.83
2017-12-30T04:14:26.863Z,89.01
2017-12-30T04:16:52.675Z,88.81
2017-12-30T04:19:18.464Z,88.58
2017-12-30T04:21:44.260Z,88.45
2017-12-30T04:24:10.071Z,88.62
2017-12-30T04:26:35.850Z,88.33
2017-12-30T04:29:01.643Z,87.79
2017-12-30T04:31:27.588Z,87.70
2017-12-30T04:33:53.370Z,87.77
2017-12-30T04:36:19.162Z,87.40
2017-12-30T04:38:44.949Z,87.21
2017-12-30T04:41:10.759Z,86.96
2017-12-30T04:43:36.539Z,86.86
2017-12-30T04:46:02.346Z,87.03
2017-12-30T04:48:28.126Z,86.90
2017-12-30T04:50:53.918Z,87.17
2017-12-30T04:53:19.712Z,86.95
2017-12-30T04:55:45.662Z,86.99
2017-12-30T04:58:11.438Z,86.90
2017-12-30T05:00:37.293Z,86.82
2017-12-30T05:03:03.074Z,86.86
2017-12-30T05:05:28.865Z,86.97
2017-12-30T05:07:54.710Z,87.06
2017-12-30T05:10:20.491Z,86.79
2017-12-30T05:12:46.284Z,86.85
2017-12-30T05:15:12.095Z,86.50
2017-12-30T05:17:37.880Z,86.38
2017-12-30T05:20:03.662Z,86.58
2017-12-30T05:22:29.454Z,86.62
2017-12-30T05:24:55.232Z,86.73
2017-12-30T05:27:21.026Z,87.12
2017-12-30T05:29:46.828Z,87.67
2017-12-30T05:32:12.836Z,87.06
2017-12-30T05:34:38.627Z,87.04
2017-12-30T05:37:04.454Z,87.07
2017-12-30T05:39:30.236Z,87.10
2017-12-30T05:41:56.034Z,87.40
2017-12-30T05:44:28.878Z,87.45
2017-12-30T05:46:54.664Z,87.06
2017-12-30T05:49:20.455Z,87.12
2017-12-30T05:51:46.248Z,86.74
2017-12-30T05:54:12.030Z,86.88
2017-12-30T05:56:37.845Z,86.78
2017-12-30T05:59:03.626Z,86.73
2017-12-30T06:01:29.419Z,86.56
2017-12-30T06:03:55.442Z,86.68
2017-12-30T06:06:21.227Z,86.96
2017-12-30T06:08:47.031Z,87.04
2017-12-30T06:11:12.820Z,87.05
2017-12-30T06:13:38.813Z,87.57
2017-12-30T06:16:04.598Z,87.85
2017-12-30T06:18:30.387Z,87.80
2017-12-30T06:20:56.241Z,88.04
2017-12-30T06:23:22.025Z,87.93
2017-12-30T06:25:47.814Z,88.26
2017-12-30T06:28:13.586Z,88.05
2017-12-30T06:30:39.357Z,88.17
2017-12-30T06:33:05.463Z,88.06
2017-12-30T06:35:31.250Z,87.88
2017-12-30T06:37:57.042Z,87.97
2017-12-30T06:40:22.829Z,88.08
2017-12-30T06:42:48.606Z,87.81
2017-12-30T06:45:14.413Z,87.89
2017-12-30T06:47:40.218Z,87.89
2017-12-30T06:50:06.009Z,87.79
2017-12-30T06:52:31.804Z,87.65
2017-12-30T06:54:57.613Z,87.49
2017-12-30T06:57:23.412Z,87.45
2017-12-30T06:59:49.197Z,87.27
2017-12-30T07:02:15.011Z,87.16
2017-12-30T07:04:40.786Z,87.02
2017-12-30T07:07:06.575Z,86.80
2017-12-30T07:09:32.356Z,86.57
2017-12-30T07:11:58.456Z,86.96
2017-12-30T07:14:24.243Z,86.74
2017-12-30T07:16:50.045Z,86.50
2017-12-30T07:19:15.845Z,86.37
2017-12-30T07:21:41.640Z,86.33
2017-12-30T07:24:07.420Z,86.18
2017-12-30T07:26:33.234Z,86.21
2017-12-30T07:28:59.010Z,85.81
2017-12-30T07:31:24.798Z,85.98
2017-12-30T07:33:50.768Z,85.61
2017-12-30T07:36:16.506Z,85.53
2017-12-30T07:38:42.292Z,85.09
2017-12-30T07:41:08.086Z,84.85
2017-12-30T07:43:40.728Z,84.84
2017-12-30T07:46:06.530Z,84.59
2017-12-30T07:48:32.314Z,84.85
2017-12-30T07:50:58.709Z,84.60
2017-12-30T07:53:24.517Z,84.36
2017-12-30T07:55:50.296Z,84.14
2017-12-30T07:58:16.109Z,83.88
2017-12-30T08:00:41.962Z,83.91
2017-12-30T08:03:07.766Z,83.87
2017-12-30T08:05:33.550Z,83.36
2017-12-30T08:07:59.351Z,83.19
2017-12-30T08:10:25.147Z,83.09
2017-12-30T08:12:50.962Z,83.02
2017-12-30T08:15:16.739Z,82.99
2017-12-30T08:17:42.921Z,82.73
2017-12-30T08:20:08.707Z,82.54
2017-12-30T08:22:34.492Z,83.20
2017-12-30T08:25:00.271Z,82.95
2017-12-30T08:27:26.411Z,83.05
2017-12-30T08:29:52.271Z,82.81
2017-12-30T08:32:18.065Z,82.40
2017-12-30T08:34:43.862Z,82.52
2017-12-30T08:37:09.643Z,82.74
2017-12-30T08:39:35.436Z,82.30
2017-12-30T08:42:01.243Z,82.50
2017-12-30T08:44:27.022Z,81.96
2017-12-30T08:46:59.821Z,81.75
2017-12-30T08:49:25.627Z,81.52
2017-12-30T08:51:51.455Z,81.78
2017-12-30T08:54:17.238Z,81.29
2017-12-30T08:56:43.015Z,81.46
2017-12-30T08:59:08.814Z,80.78
2017-12-30T09:01:35.015Z,80.93
2017-12-30T09:04:00.835Z,80.80
2017-12-30T09:06:26.602Z,80.97
2017-12-30T09:08:52.391Z,80.79
2017-12-30T09:11:18.186Z,80.27
2017-12-30T09:13:43.982Z,80.21
2017-12-30T09:16:09.771Z,80.43
2017-12-30T09:18:35.578Z,80.64
2017-12-30T09:21:01.364Z,80.33
2017-12-30T09:23:27.147Z,80.57
2017-12-30T09:25:52.946Z,80.52
2017-12-30T09:28:18.731Z,79.78
2017-12-30T09:30:44.503Z,79.65
2017-12-30T09:33:10.498Z,80.12
2017-12-30T09:35:36.294Z,80.42
2017-12-30T09:38:02.083Z,80.22
2017-12-30T09:40:27.891Z,80.21
2017-12-30T09:42:53.674Z,80.33
2017-12-30T09:45:19.454Z,80.58
2017-12-30T09:47:45.250Z,80.03
2017-12-30T09:50:11.023Z,80.44
2017-12-30T09:52:36.795Z,80.01
2017-12-30T09:55:02.831Z,80.55
2017-12-30T09:57:28.615Z,80.40
2017-12-30T09:59:54.396Z,80.18
2017-12-30T10:02:20.678Z,80.34
2017-12-30T10:04:46.455Z,80.81
2017-12-30T10:07:12.235Z,80.61
2017-12-30T10:09:38.047Z,80.83
2017-12-30T10:12:03.827Z,81.30
2017-12-30T10:14:29.607Z,81.02
2017-12-30T10:16:55.403Z,80.62
2017-12-30T10:19:21.174Z,80.95
2017-12-30T10:21:46.978Z,80.38
2017-12-30T10:24:12.763Z,80.79
2017-12-30T10:26:38.551Z,80.63
2017-12-30T10:29:04.346Z,80.62
2017-12-30T10:31:30.147Z,80.74
2017-12-30T10:33:55.940Z,80.50
2017-12-30T10:36:21.760Z,80.29
2017-12-30T10:38:47.539Z,81.13
2017-12-30T10:41:13.323Z,81.18
2017-12-30T10:43:39.418Z,81.34
2017-12-30T10:46:05.204Z,82.70
2017-12-30T10:48:30.991Z,82.70
2017-12-30T10:50:57.260Z,83.18
2017-12-30T10:53:23.043Z,83.00
2017-12-30T10:55:48.831Z,83.57
2017-12-30T10:58:14.621Z,83.79
2017-12-30T11:00:46.411Z,84.16
2017-12-30T11:03:12.200Z,84.89
2017-12-30T11:05:38.030Z,85.02
2017-12-30T11:08:03.823Z,85.27
2017-12-30T11:10:29.597Z,84.72
2017-12-30T11:12:55.384Z,85.66
2017-12-30T11:15:21.174Z,84.95
2017-12-30T11:17:46.954Z,85.67
2017-12-30T11:20:12.783Z,86.53
2017-12-30T11:22:38.567Z,85.95
2017-12-30T11:25:04.359Z,86.64
2017-12-30T11:27:30.986Z,87.75
2017-12-30T11:29:56.784Z,88.27
2017-12-30T11:32:22.568Z,88.56
2017-12-30T11:34:48.553Z,88.62
2017-12-30T11:37:14.331Z,88.64
2017-12-30T11:39:40.139Z,89.22
2017-12-30T11:42:05.931Z,89.03
2017-12-30T11:44:31.718Z,89.52
2017-12-30T11:46:57.494Z,89.38
2017-12-30T11:49:23.308Z,88.94
2017-12-30T11:51:49.115Z,89.20
2017-12-30T11:54:14.895Z,90.44
2017-12-30T11:56:40.788Z,89.58
2017-12-30T11:59:06.608Z,90.11
2017-12-30T12:01:32.407Z,89.89
2017-12-30T12:03:58.201Z,90.45
2017-12-30T12:06:24.140Z,90.18
2017-12-30T12:08:49.959Z,90.93
2017-12-30T12:11:15.783Z,90.49
2017-12-30T12:13:41.571Z,90.34
2017-12-30T12:16:07.382Z,90.38
2017-12-30T12:18:33.178Z,91.65
2017-12-30T12:21:00.248Z,89.06
2017-12-30T12:23:26.038Z,90.28
2017-12-30T12:25:51.816Z,91.16
2017-12-30T12:28:17.629Z,91.38
2017-12-30T12:30:43.450Z,90.24
2017-12-30T12:33:09.250Z,89.36
2017-12-30T12:35:35.050Z,89.97
2017-12-30T12:38:00.844Z,89.25
2017-12-30T12:40:26.627Z,88.38
2017-12-30T12:42:52.426Z,88.25
2017-12-30T12:45:18.227Z,89.77
2017-12-30T12:47:44.061Z,88.98
2017-12-30T12:50:09.858Z,88.47
2017-12-30T12:52:35.640Z,89.36
2017-12-30T12:55:01.432Z,89.90
2017-12-30T12:57:27.326Z,89.36
2017-12-30T12:59:53.115Z,89.79
2017-12-30T13:02:18.910Z,90.25
2017-12-30T13:04:44.710Z,90.37
2017-12-30T13:07:10.500Z,90.66
2017-12-30T13:09:36.410Z,90.61
2017-12-30T13:12:02.227Z,88.94
2017-12-30T13:14:28.002Z,89.74
2017-12-30T13:16:54.015Z,90.68
2017-12-30T13:19:19.814Z,91.03
2017-12-30T13:21:45.599Z,91.66
2017-12-30T13:24:11.395Z,91.69
2017-12-30T13:26:37.385Z,91.33
2017-12-30T13:29:03.158Z,91.10
2017-12-30T13:31:28.954Z,91.01
2017-12-30T13:33:54.864Z,90.92
2017-12-30T13:36:20.907Z,91.12
2017-12-30T13:38:46.711Z,91.22
2017-12-30T13:41:12.522Z,91.29
2017-12-30T13:43:38.460Z,91.92
2017-12-30T13:46:04.292Z,92.31
2017-12-30T13:48:30.134Z,92.16
2017-12-30T13:50:55.936Z,92.20
2017-12-30T13:53:21.726Z,91.39
2017-12-30T13:55:48.571Z,92.06
2017-12-30T13:58:14.370Z,91.21
2017-12-30T14:00:40.155Z,91.08
2017-12-30T14:03:05.947Z,91.54
2017-12-30T14:05:32.658Z,91.79
2017-12-30T14:07:58.478Z,92.47
2017-12-30T14:10:24.271Z,92.46
2017-12-30T14:12:50.095Z,92.13
2017-12-30T14:15:15.875Z,92.34
2017-12-30T14:17:41.655Z,92.65
2017-12-30T14:20:07.448Z,92.84
2017-12-30T14:22:33.226Z,93.25
2017-12-30T14:24:59.035Z,93.23
2017-12-30T14:27:24.837Z,93.25
2017-12-30T14:29:50.618Z,93.31
2017-12-30T14:32:16.417Z,93.39
2017-12-30T14:34:42.373Z,92.39
2017-12-30T14:37:08.163Z,92.89
2017-12-30T14:39:33.955Z,93.11
2017-12-30T14:41:59.757Z,93.19
2017-12-30T14:44:25.541Z,93.88
2017-12-30T14:46:51.322Z,93.96
2017-12-30T14:49:17.590Z,93.65
2017-12-30T14:51:43.433Z,93.32
2017-12-30T14:54:09.263Z,93.10
2017-12-30T14:56:35.011Z,93.93
2017-12-30T14:59:00.794Z,94.18
2017-12-30T15:01:26.773Z,94.06
2017-12-30T15:03:52.664Z,94.56
2017-12-30T15:06:18.503Z,94.50
2017-12-30T15:08:44.862Z,93.92
2017-12-30T15:11:10.979Z,94.24
2017-12-30T15:13:36.810Z,94.17
2017-12-30T15:16:02.614Z,93.91
2017-12-30T15:18:28.399Z,93.93
2017-12-30T15:20:54.200Z,93.97
2017-12-30T15:23:20.000Z,93.49
2017-12-30T15:25:45.803Z,93.68
2017-12-30T15:28:11.587Z,94.00
2017-12-30T15:30:37.392Z,94.38
2017-12-30T15:33:03.191Z,94.23
2017-12-30T15:35:28.978Z,94.41
2017-12-30T15:37:55.080Z,94.59
2017-12-30T15:40:21.113Z,94.07
2017-12-30T15:42:46.894Z,94.27
2017-12-30T15:45:12.715Z,94.77
2017-12-30T15:47:38.622Z,94.94
2017-12-30T15:50:04.482Z,95.14
2017-12-30T15:52:30.374Z,95.31
2017-12-30T15:54:56.254Z,95.78
2017-12-30T15:57:22.031Z,96.01
2017-12-30T15:59:47.821Z,96.26
2017-12-30T16:02:13.806Z,96.18
2017-12-30T16:04:39.583Z,96.21
2017-12-30T16:07:06.183Z,95.96
2017-12-30T16:09:32.242Z,96.33
2017-12-30T16:11:58.040Z,96.66
2017-12-30T16:14:23.828Z,96.73
2017-12-30T16:16:49.987Z,96.76
2017-12-30T16:19:15.903Z,96.82
2017-12-30T16:21:41.684Z,97.19
2017-12-30T16:24:07.495Z,97.36
2017-12-30T16:26:33.288Z,97.39
2017-12-30T16:28:59.074Z,97.31
2017-12-30T16:31:24.864Z,97.24
2017-12-30T16:33:51.050Z,97.23
2017-12-30T16:36:16.829Z,96.99
2017-12-30T16:38:42.631Z,96.91
2017-12-30T16:41:08.814Z,96.57
2017-12-30T16:43:34.623Z,95.86
2017-12-30T16:46:00.420Z,95.92
2017-12-30T16:48:26.616Z,95.52
2017-12-30T16:50:52.419Z,94.76
2017-12-30T16:53:18.262Z,95.12
2017-12-30T16:55:44.068Z,94.57
2017-12-30T16:58:10.347Z,94.38
2017-12-30T17:00:36.205Z,94.14
2017-12-30T17:03:02.008Z,93.76
2017-12-30T17:05:27.831Z,93.56
2017-12-30T17:07:53.669Z,93.24
2017-12-30T17:10:19.455Z,92.54
2017-12-30T17:12:45.271Z,92.75
2017-12-30T17:15:11.056Z,91.59
